sensor_id;sensor_type;location;lat;lon;timestamp;pressure;altitude;pressure_sealevel;temperature;humidity
77192;BME280;66172;48.526;8.078;2022-12-18T00:00:47;100727.03;;;-7.73;89.29
77192;BME280;66172;48.526;8.078;2022-12-18T00:03:14;100731.69;;;-7.75;89.46
77192;BME280;66172;48.526;8.078;2022-12-18T00:05:50;100724.22;;;-7.71;89.58
77192;BME280;66172;48.526;8.078;2022-12-18T00:08:17;100733.22;;;-7.80;89.88
77192;BME280;66172;48.526;8.078;2022-12-18T00:10:43;100733.94;;;-7.72;90.18
77192;BME280;66172;48.526;8.078;2022-12-18T00:13:10;100741.97;;;-7.80;89.98
77192;BME280;66172;48.526;8.078;2022-12-18T00:15:38;100730.34;;;-7.85;90.29
77192;BME280;66172;48.526;8.078;2022-12-18T00:18:04;100739.09;;;-7.85;90.19
77192;BME280;66172;48.526;8.078;2022-12-18T00:20:31;100743.56;;;-7.85;90.48
77192;BME280;66172;48.526;8.078;2022-12-18T00:22:57;100742.19;;;-7.81;90.82
77192;BME280;66172;48.526;8.078;2022-12-18T00:25:23;100747.81;;;-7.84;90.38
77192;BME280;66172;48.526;8.078;2022-12-18T00:27:49;100735.56;;;-7.92;89.67
77192;BME280;66172;48.526;8.078;2022-12-18T00:30:14;100728.09;;;-7.88;89.27
77192;BME280;66172;48.526;8.078;2022-12-18T00:32:40;100726.06;;;-7.86;89.04
77192;BME280;66172;48.526;8.078;2022-12-18T00:35:06;100725.13;;;-7.79;89.01
77192;BME280;66172;48.526;8.078;2022-12-18T00:37:35;100719.66;;;-7.77;88.66
77192;BME280;66172;48.526;8.078;2022-12-18T00:40:02;100710.69;;;-7.83;88.01
77192;BME280;66172;48.526;8.078;2022-12-18T00:42:28;100725.53;;;-7.82;87.93
77192;BME280;66172;48.526;8.078;2022-12-18T00:45:17;100724.28;;;-8.00;87.93
77192;BME280;66172;48.526;8.078;2022-12-18T00:47:43;100727.94;;;-8.01;88.33
77192;BME280;66172;48.526;8.078;2022-12-18T00:50:09;100730.03;;;-7.97;88.03
77192;BME280;66172;48.526;8.078;2022-12-18T00:52:35;100730.03;;;-7.97;88.71
77192;BME280;66172;48.526;8.078;2022-12-18T00:55:01;100722.72;;;-7.95;89.06
77192;BME280;66172;48.526;8.078;2022-12-18T00:57:27;100707.84;;;-8.02;89.11
77192;BME280;66172;48.526;8.078;2022-12-18T00:59:52;100706.97;;;-7.88;88.87
77192;BME280;66172;48.526;8.078;2022-12-18T01:02:18;100699.25;;;-7.69;88.58
77192;BME280;66172;48.526;8.078;2022-12-18T01:04:44;100694.53;;;-7.73;87.61
77192;BME280;66172;48.526;8.078;2022-12-18T01:07:10;100709.97;;;-7.70;87.45
77192;BME280;66172;48.526;8.078;2022-12-18T01:09:36;100703.97;;;-7.64;87.34
77192;BME280;66172;48.526;8.078;2022-12-18T01:12:02;100705.03;;;-7.80;87.61
77192;BME280;66172;48.526;8.078;2022-12-18T01:14:28;100704.53;;;-7.90;88.02
77192;BME280;66172;48.526;8.078;2022-12-18T01:16:54;100716.44;;;-7.94;88.52
77192;BME280;66172;48.526;8.078;2022-12-18T01:19:20;100720.53;;;-7.91;89.05
77192;BME280;66172;48.526;8.078;2022-12-18T01:21:46;100717.00;;;-7.98;89.23
77192;BME280;66172;48.526;8.078;2022-12-18T01:24:12;100724.13;;;-7.99;88.93
77192;BME280;66172;48.526;8.078;2022-12-18T01:26:37;100730.56;;;-8.01;89.35
77192;BME280;66172;48.526;8.078;2022-12-18T01:29:03;100720.97;;;-7.88;88.54
77192;BME280;66172;48.526;8.078;2022-12-18T01:31:32;100726.19;;;-7.94;88.75
77192;BME280;66172;48.526;8.078;2022-12-18T01:34:02;100738.94;;;-7.98;88.88
77192;BME280;66172;48.526;8.078;2022-12-18T01:36:31;100755.63;;;-7.76;88.01
77192;BME280;66172;48.526;8.078;2022-12-18T01:39:03;100745.75;;;-7.68;88.27
77192;BME280;66172;48.526;8.078;2022-12-18T01:41:31;100766.63;;;-7.73;87.88
77192;BME280;66172;48.526;8.078;2022-12-18T01:47:39;100745.81;;;-7.82;87.75
77192;BME280;66172;48.526;8.078;2022-12-18T01:50:10;100751.84;;;-7.88;87.91
77192;BME280;66172;48.526;8.078;2022-12-18T01:52:37;100758.50;;;-7.92;87.88
77192;BME280;66172;48.526;8.078;2022-12-18T01:55:05;100748.19;;;-7.87;87.82
77192;BME280;66172;48.526;8.078;2022-12-18T01:57:32;100746.28;;;-7.93;88.18
77192;BME280;66172;48.526;8.078;2022-12-18T02:00:07;100744.53;;;-7.86;88.33
77192;BME280;66172;48.526;8.078;2022-12-18T02:02:34;100744.72;;;-7.88;88.46
77192;BME280;66172;48.526;8.078;2022-12-18T02:05:00;100747.50;;;-7.96;88.70
77192;BME280;66172;48.526;8.078;2022-12-18T02:07:42;100746.53;;;-8.10;88.19
77192;BME280;66172;48.526;8.078;2022-12-18T02:18:21;100734.50;;;-8.12;88.29
77192;BME280;66172;48.526;8.078;2022-12-18T02:26:41;100744.97;;;-8.04;87.91
77192;BME280;66172;48.526;8.078;2022-12-18T02:29:18;100749.03;;;-8.01;87.50
77192;BME280;66172;48.526;8.078;2022-12-18T02:31:51;100744.38;;;-7.85;87.46
77192;BME280;66172;48.526;8.078;2022-12-18T02:34:19;100752.59;;;-7.73;86.46
77192;BME280;66172;48.526;8.078;2022-12-18T02:36:48;100743.81;;;-7.59;86.55
77192;BME280;66172;48.526;8.078;2022-12-18T02:39:15;100755.28;;;-7.88;86.56
77192;BME280;66172;48.526;8.078;2022-12-18T02:41:42;100758.59;;;-8.00;87.41
77192;BME280;66172;48.526;8.078;2022-12-18T02:44:11;100751.88;;;-8.03;87.79
77192;BME280;66172;48.526;8.078;2022-12-18T02:46:41;100750.78;;;-8.09;88.40
77192;BME280;66172;48.526;8.078;2022-12-18T02:49:31;100737.13;;;-7.97;87.64
77192;BME280;66172;48.526;8.078;2022-12-18T02:57:54;100745.75;;;-7.89;87.84
77192;BME280;66172;48.526;8.078;2022-12-18T03:00:23;100755.22;;;-7.94;87.75
77192;BME280;66172;48.526;8.078;2022-12-18T03:02:59;100749.66;;;-7.85;87.64
77192;BME280;66172;48.526;8.078;2022-12-18T03:05:45;100765.53;;;-7.99;88.07
77192;BME280;66172;48.526;8.078;2022-12-18T03:08:18;100767.72;;;-8.03;88.00
77192;BME280;66172;48.526;8.078;2022-12-18T03:10:50;100769.78;;;-7.98;87.57
77192;BME280;66172;48.526;8.078;2022-12-18T03:16:02;100766.28;;;-8.20;88.93
77192;BME280;66172;48.526;8.078;2022-12-18T03:20:59;100764.63;;;-8.06;88.61
77192;BME280;66172;48.526;8.078;2022-12-18T03:23:30;100760.16;;;-8.06;88.24
77192;BME280;66172;48.526;8.078;2022-12-18T03:26:08;100765.78;;;-8.09;88.65
77192;BME280;66172;48.526;8.078;2022-12-18T03:28:48;100754.91;;;-8.06;88.57
77192;BME280;66172;48.526;8.078;2022-12-18T03:31:16;100751.69;;;-8.01;88.70
77192;BME280;66172;48.526;8.078;2022-12-18T03:33:51;100753.19;;;-7.78;88.34
77192;BME280;66172;48.526;8.078;2022-12-18T03:36:17;100749.72;;;-7.78;87.78
77192;BME280;66172;48.526;8.078;2022-12-18T03:38:43;100757.16;;;-7.46;86.90
77192;BME280;66172;48.526;8.078;2022-12-18T03:41:43;100759.97;;;-7.26;85.81
77192;BME280;66172;48.526;8.078;2022-12-18T03:44:14;100768.66;;;-7.32;85.79
77192;BME280;66172;48.526;8.078;2022-12-18T03:46:55;100756.13;;;-7.66;86.41
77192;BME280;66172;48.526;8.078;2022-12-18T03:49:38;100766.38;;;-7.78;86.86
77192;BME280;66172;48.526;8.078;2022-12-18T03:52:14;100768.97;;;-7.99;88.28
77192;BME280;66172;48.526;8.078;2022-12-18T03:54:44;100768.72;;;-8.04;88.75
77192;BME280;66172;48.526;8.078;2022-12-18T03:57:17;100773.00;;;-8.03;88.76
77192;BME280;66172;48.526;8.078;2022-12-18T03:59:45;100774.53;;;-8.09;89.06
77192;BME280;66172;48.526;8.078;2022-12-18T04:02:15;100771.06;;;-8.09;88.99
77192;BME280;66172;48.526;8.078;2022-12-18T04:04:43;100771.72;;;-8.22;89.45
77192;BME280;66172;48.526;8.078;2022-12-18T04:07:11;100770.28;;;-8.24;89.65
77192;BME280;66172;48.526;8.078;2022-12-18T04:09:39;100766.00;;;-8.11;89.71
77192;BME280;66172;48.526;8.078;2022-12-18T04:12:08;100760.72;;;-8.11;89.52
77192;BME280;66172;48.526;8.078;2022-12-18T04:14:34;100758.22;;;-7.97;88.95
77192;BME280;66172;48.526;8.078;2022-12-18T04:17:02;100763.88;;;-8.00;88.28
77192;BME280;66172;48.526;8.078;2022-12-18T04:19:28;100755.38;;;-8.17;88.21
77192;BME280;66172;48.526;8.078;2022-12-18T04:21:54;100752.50;;;-8.37;88.09
77192;BME280;66172;48.526;8.078;2022-12-18T04:24:20;100744.97;;;-8.40;88.84
77192;BME280;66172;48.526;8.078;2022-12-18T04:26:46;100743.13;;;-8.39;89.26
77192;BME280;66172;48.526;8.078;2022-12-18T04:29:12;100746.69;;;-8.47;89.31
77192;BME280;66172;48.526;8.078;2022-12-18T04:31:38;100729.59;;;-8.51;89.73
77192;BME280;66172;48.526;8.078;2022-12-18T04:34:04;100744.63;;;-8.51;89.26
77192;BME280;66172;48.526;8.078;2022-12-18T04:36:29;100746.81;;;-8.55;89.47
77192;BME280;66172;48.526;8.078;2022-12-18T04:38:56;100745.97;;;-8.55;89.59
77192;BME280;66172;48.526;8.078;2022-12-18T04:41:21;100752.41;;;-8.58;89.94
77192;BME280;66172;48.526;8.078;2022-12-18T04:43:47;100750.06;;;-8.68;89.51
77192;BME280;66172;48.526;8.078;2022-12-18T04:46:13;100760.25;;;-8.65;89.42
77192;BME280;66172;48.526;8.078;2022-12-18T04:48:39;100758.88;;;-8.61;89.40
77192;BME280;66172;48.526;8.078;2022-12-18T04:51:05;100749.16;;;-8.60;88.80
77192;BME280;66172;48.526;8.078;2022-12-18T04:53:32;100745.69;;;-8.61;89.21
77192;BME280;66172;48.526;8.078;2022-12-18T04:56:11;100753.44;;;-8.59;88.65
77192;BME280;66172;48.526;8.078;2022-12-18T04:58:39;100751.25;;;-8.55;88.44
77192;BME280;66172;48.526;8.078;2022-12-18T05:01:06;100752.31;;;-8.65;87.22
77192;BME280;66172;48.526;8.078;2022-12-18T05:03:33;100755.25;;;-8.74;87.48
77192;BME280;66172;48.526;8.078;2022-12-18T05:06:00;100753.59;;;-8.75;87.49
77192;BME280;66172;48.526;8.078;2022-12-18T05:08:26;100746.16;;;-8.72;87.45
77192;BME280;66172;48.526;8.078;2022-12-18T05:11:07;100749.16;;;-8.75;87.54
77192;BME280;66172;48.526;8.078;2022-12-18T05:13:34;100751.59;;;-8.88;87.40
77192;BME280;66172;48.526;8.078;2022-12-18T05:16:00;100753.97;;;-8.78;87.29
77192;BME280;66172;48.526;8.078;2022-12-18T05:18:26;100756.16;;;-8.82;87.29
77192;BME280;66172;48.526;8.078;2022-12-18T05:20:53;100762.31;;;-8.75;87.43
77192;BME280;66172;48.526;8.078;2022-12-18T05:23:20;100755.59;;;-8.33;85.88
77192;BME280;66172;48.526;8.078;2022-12-18T05:25:52;100746.69;;;-8.47;85.25
77192;BME280;66172;48.526;8.078;2022-12-18T05:28:19;100743.50;;;-8.57;85.23
77192;BME280;66172;48.526;8.078;2022-12-18T05:30:50;100747.50;;;-8.76;85.76
77192;BME280;66172;48.526;8.078;2022-12-18T05:33:17;100752.16;;;-8.78;85.50
77192;BME280;66172;48.526;8.078;2022-12-18T05:35:43;100760.44;;;-8.81;84.64
77192;BME280;66172;48.526;8.078;2022-12-18T05:38:10;100758.16;;;-8.84;85.00
77192;BME280;66172;48.526;8.078;2022-12-18T05:40:36;100760.31;;;-9.02;85.42
77192;BME280;66172;48.526;8.078;2022-12-18T05:43:02;100769.63;;;-9.14;83.87
77192;BME280;66172;48.526;8.078;2022-12-18T05:45:28;100761.19;;;-9.09;83.55
77192;BME280;66172;48.526;8.078;2022-12-18T05:47:54;100768.69;;;-9.21;82.49
77192;BME280;66172;48.526;8.078;2022-12-18T05:50:20;100773.13;;;-9.22;82.47
77192;BME280;66172;48.526;8.078;2022-12-18T05:52:45;100771.41;;;-9.29;82.20
77192;BME280;66172;48.526;8.078;2022-12-18T05:55:11;100761.25;;;-9.32;81.98
77192;BME280;66172;48.526;8.078;2022-12-18T05:57:37;100763.22;;;-9.34;82.13
77192;BME280;66172;48.526;8.078;2022-12-18T06:00:04;100776.03;;;-9.31;82.12
77192;BME280;66172;48.526;8.078;2022-12-18T06:02:30;100774.56;;;-9.34;81.91
77192;BME280;66172;48.526;8.078;2022-12-18T06:04:56;100790.06;;;-9.39;81.89
77192;BME280;66172;48.526;8.078;2022-12-18T06:07:21;100794.28;;;-9.52;82.52
77192;BME280;66172;48.526;8.078;2022-12-18T06:09:47;100791.88;;;-9.62;82.78
77192;BME280;66172;48.526;8.078;2022-12-18T06:12:13;100811.50;;;-9.65;83.26
77192;BME280;66172;48.526;8.078;2022-12-18T06:14:39;100813.88;;;-9.55;84.04
77192;BME280;66172;48.526;8.078;2022-12-18T06:17:05;100819.00;;;-9.53;83.28
77192;BME280;66172;48.526;8.078;2022-12-18T06:19:31;100822.56;;;-9.46;83.58
77192;BME280;66172;48.526;8.078;2022-12-18T06:21:57;100824.25;;;-9.53;83.18
77192;BME280;66172;48.526;8.078;2022-12-18T06:24:24;100827.94;;;-9.71;83.70
77192;BME280;66172;48.526;8.078;2022-12-18T06:26:50;100819.78;;;-9.76;83.89
77192;BME280;66172;48.526;8.078;2022-12-18T06:29:16;100829.97;;;-9.81;83.52
77192;BME280;66172;48.526;8.078;2022-12-18T06:31:42;100831.50;;;-9.86;83.66
77192;BME280;66172;48.526;8.078;2022-12-18T06:34:08;100830.84;;;-9.88;82.51
77192;BME280;66172;48.526;8.078;2022-12-18T06:36:33;100832.66;;;-9.89;83.04
77192;BME280;66172;48.526;8.078;2022-12-18T06:38:59;100844.81;;;-9.88;82.54
77192;BME280;66172;48.526;8.078;2022-12-18T06:41:25;100835.19;;;-10.03;82.12
77192;BME280;66172;48.526;8.078;2022-12-18T06:43:51;100836.69;;;-10.09;82.07
77192;BME280;66172;48.526;8.078;2022-12-18T06:46:17;100844.47;;;-10.16;82.08
77192;BME280;66172;48.526;8.078;2022-12-18T06:48:47;100836.94;;;-10.19;82.34
77192;BME280;66172;48.526;8.078;2022-12-18T06:51:19;100842.25;;;-10.35;82.60
77192;BME280;66172;48.526;8.078;2022-12-18T06:53:46;100840.41;;;-10.26;83.30
77192;BME280;66172;48.526;8.078;2022-12-18T06:56:12;100839.22;;;-10.24;83.37
77192;BME280;66172;48.526;8.078;2022-12-18T06:58:38;100836.78;;;-10.25;82.98
77192;BME280;66172;48.526;8.078;2022-12-18T07:01:06;100830.06;;;-10.28;83.12
77192;BME280;66172;48.526;8.078;2022-12-18T07:03:33;100839.72;;;-10.20;83.05
77192;BME280;66172;48.526;8.078;2022-12-18T07:05:59;100823.06;;;-10.13;83.08
77192;BME280;66172;48.526;8.078;2022-12-18T07:08:25;100825.31;;;-10.32;83.42
77192;BME280;66172;48.526;8.078;2022-12-18T07:10:51;100831.34;;;-10.24;83.34
77192;BME280;66172;48.526;8.078;2022-12-18T07:13:17;100827.13;;;-10.33;82.61
77192;BME280;66172;48.526;8.078;2022-12-18T07:15:43;100818.94;;;-10.46;82.58
77192;BME280;66172;48.526;8.078;2022-12-18T07:18:10;100812.06;;;-10.55;82.38
77192;BME280;66172;48.526;8.078;2022-12-18T07:20:36;100810.09;;;-10.53;81.98
77192;BME280;66172;48.526;8.078;2022-12-18T07:23:03;100814.88;;;-10.56;82.88
77192;BME280;66172;48.526;8.078;2022-12-18T07:25:29;100816.84;;;-10.58;83.61
77192;BME280;66172;48.526;8.078;2022-12-18T07:27:55;100806.81;;;-10.55;83.45
77192;BME280;66172;48.526;8.078;2022-12-18T07:30:21;100822.63;;;-10.63;83.68
77192;BME280;66172;48.526;8.078;2022-12-18T07:32:47;100821.94;;;-10.65;83.20
77192;BME280;66172;48.526;8.078;2022-12-18T07:35:13;100823.94;;;-10.67;83.77
77192;BME280;66172;48.526;8.078;2022-12-18T07:37:39;100836.38;;;-10.61;83.40
77192;BME280;66172;48.526;8.078;2022-12-18T07:40:05;100838.03;;;-10.52;80.97
77192;BME280;66172;48.526;8.078;2022-12-18T07:42:31;100846.06;;;-10.53;79.71
77192;BME280;66172;48.526;8.078;2022-12-18T07:45:01;100845.59;;;-10.57;79.62
77192;BME280;66172;48.526;8.078;2022-12-18T07:47:28;100847.03;;;-10.46;80.54
77192;BME280;66172;48.526;8.078;2022-12-18T07:49:54;100852.19;;;-10.14;79.69
77192;BME280;66172;48.526;8.078;2022-12-18T07:52:20;100857.81;;;-9.86;79.01
77192;BME280;66172;48.526;8.078;2022-12-18T07:54:47;100865.41;;;-9.60;77.31
77192;BME280;66172;48.526;8.078;2022-12-18T07:57:15;100874.38;;;-9.47;76.69
77192;BME280;66172;48.526;8.078;2022-12-18T07:59:42;100880.16;;;-9.29;76.16
77192;BME280;66172;48.526;8.078;2022-12-18T08:02:07;100877.97;;;-9.40;75.65
77192;BME280;66172;48.526;8.078;2022-12-18T08:04:33;100870.13;;;-9.56;76.26
77192;BME280;66172;48.526;8.078;2022-12-18T08:06:59;100868.53;;;-9.34;76.20
77192;BME280;66172;48.526;8.078;2022-12-18T08:09:25;100875.00;;;-9.68;77.85
77192;BME280;66172;48.526;8.078;2022-12-18T08:11:51;100873.50;;;-9.39;77.97
77192;BME280;66172;48.526;8.078;2022-12-18T08:14:17;100872.81;;;-9.33;77.41
77192;BME280;66172;48.526;8.078;2022-12-18T08:16:43;100870.59;;;-9.52;76.05
77192;BME280;66172;48.526;8.078;2022-12-18T08:19:09;100871.72;;;-9.78;77.20
77192;BME280;66172;48.526;8.078;2022-12-18T08:21:34;100878.38;;;-9.98;77.13
77192;BME280;66172;48.526;8.078;2022-12-18T08:24:01;100863.31;;;-10.04;77.53
77192;BME280;66172;48.526;8.078;2022-12-18T08:26:29;100855.88;;;-10.00;77.90
77192;BME280;66172;48.526;8.078;2022-12-18T08:28:57;100847.81;;;-9.99;77.77
77192;BME280;66172;48.526;8.078;2022-12-18T08:31:24;100849.47;;;-10.06;78.31
77192;BME280;66172;48.526;8.078;2022-12-18T08:33:52;100836.59;;;-10.16;78.08
77192;BME280;66172;48.526;8.078;2022-12-18T08:36:18;100830.50;;;-10.16;78.33
77192;BME280;66172;48.526;8.078;2022-12-18T08:38:46;100831.03;;;-9.90;78.48
77192;BME280;66172;48.526;8.078;2022-12-18T08:41:13;100821.69;;;-9.70;77.69
77192;BME280;66172;48.526;8.078;2022-12-18T08:43:40;100821.91;;;-9.48;77.25
77192;BME280;66172;48.526;8.078;2022-12-18T08:46:26;100809.72;;;-9.27;76.31
77192;BME280;66172;48.526;8.078;2022-12-18T08:48:54;100813.09;;;-8.95;75.52
77192;BME280;66172;48.526;8.078;2022-12-18T08:51:21;100811.59;;;-8.61;74.66
77192;BME280;66172;48.526;8.078;2022-12-18T08:53:47;100815.91;;;-8.45;74.81
77192;BME280;66172;48.526;8.078;2022-12-18T08:56:13;100809.28;;;-8.20;73.92
77192;BME280;66172;48.526;8.078;2022-12-18T08:58:40;100807.38;;;-7.96;73.90
77192;BME280;66172;48.526;8.078;2022-12-18T09:01:08;100813.75;;;-7.70;73.22
77192;BME280;66172;48.526;8.078;2022-12-18T09:03:35;100819.38;;;-7.58;73.50
77192;BME280;66172;48.526;8.078;2022-12-18T09:06:01;100807.19;;;-7.38;73.71
77192;BME280;66172;48.526;8.078;2022-12-18T09:08:27;100818.56;;;-7.16;74.16
77192;BME280;66172;48.526;8.078;2022-12-18T09:10:54;100822.16;;;-7.02;74.58
77192;BME280;66172;48.526;8.078;2022-12-18T09:13:21;100830.06;;;-7.02;74.87
77192;BME280;66172;48.526;8.078;2022-12-18T09:15:51;100837.22;;;-6.96;74.74
77192;BME280;66172;48.526;8.078;2022-12-18T09:18:18;100834.03;;;-6.92;75.22
77192;BME280;66172;48.526;8.078;2022-12-18T09:20:45;100836.97;;;-6.80;75.89
77192;BME280;66172;48.526;8.078;2022-12-18T09:23:11;100845.75;;;-6.52;75.04
77192;BME280;66172;48.526;8.078;2022-12-18T09:25:38;100851.53;;;-6.35;73.69
77192;BME280;66172;48.526;8.078;2022-12-18T09:28:09;100849.66;;;-6.14;73.14
77192;BME280;66172;48.526;8.078;2022-12-18T09:30:42;100849.34;;;-5.91;72.25
77192;BME280;66172;48.526;8.078;2022-12-18T09:33:09;100852.66;;;-5.69;71.76
77192;BME280;66172;48.526;8.078;2022-12-18T09:35:38;100853.56;;;-5.49;72.22
77192;BME280;66172;48.526;8.078;2022-12-18T09:38:05;100859.72;;;-5.35;71.00
77192;BME280;66172;48.526;8.078;2022-12-18T09:40:35;100866.69;;;-5.21;71.08
77192;BME280;66172;48.526;8.078;2022-12-18T09:43:04;100866.53;;;-4.93;69.67
77192;BME280;66172;48.526;8.078;2022-12-18T09:45:43;100878.16;;;-4.75;69.26
77192;BME280;66172;48.526;8.078;2022-12-18T09:48:16;100875.72;;;-4.50;68.93
77192;BME280;66172;48.526;8.078;2022-12-18T09:50:46;100887.31;;;-4.18;69.10
77192;BME280;66172;48.526;8.078;2022-12-18T09:53:18;100884.41;;;-3.84;67.81
77192;BME280;66172;48.526;8.078;2022-12-18T09:55:47;100889.28;;;-3.74;67.75
77192;BME280;66172;48.526;8.078;2022-12-18T10:00:53;100905.63;;;-3.77;66.83
77192;BME280;66172;48.526;8.078;2022-12-18T10:03:19;100902.22;;;-4.11;67.47
77192;BME280;66172;48.526;8.078;2022-12-18T10:06:14;100889.00;;;-4.43;69.38
77192;BME280;66172;48.526;8.078;2022-12-18T10:12:21;100864.69;;;-4.73;70.55
77192;BME280;66172;48.526;8.078;2022-12-18T10:15:07;100858.16;;;-4.97;70.96
77192;BME280;66172;48.526;8.078;2022-12-18T10:17:51;100864.88;;;-5.01;72.34
77192;BME280;66172;48.526;8.078;2022-12-18T10:20:36;100862.44;;;-4.96;72.48
77192;BME280;66172;48.526;8.078;2022-12-18T10:25:55;100864.09;;;-4.49;70.15
77192;BME280;66172;48.526;8.078;2022-12-18T10:28:26;100856.09;;;-4.16;70.02
77192;BME280;66172;48.526;8.078;2022-12-18T10:30:52;100855.25;;;-3.53;68.50
77192;BME280;66172;48.526;8.078;2022-12-18T10:33:21;100846.44;;;-3.15;66.93
77192;BME280;66172;48.526;8.078;2022-12-18T10:35:50;100838.25;;;-2.82;66.84
77192;BME280;66172;48.526;8.078;2022-12-18T10:43:15;100838.31;;;-2.21;64.74
77192;BME280;66172;48.526;8.078;2022-12-18T10:45:42;100842.59;;;-2.20;65.08
77192;BME280;66172;48.526;8.078;2022-12-18T10:48:23;100839.56;;;-2.24;64.28
77192;BME280;66172;48.526;8.078;2022-12-18T10:50:50;100827.78;;;-2.34;64.40
77192;BME280;66172;48.526;8.078;2022-12-18T10:53:25;100812.41;;;-2.32;65.22
77192;BME280;66172;48.526;8.078;2022-12-18T10:55:53;100814.47;;;-2.34;64.53
77192;BME280;66172;48.526;8.078;2022-12-18T10:58:27;100812.78;;;-2.29;64.75
77192;BME280;66172;48.526;8.078;2022-12-18T11:01:12;100818.69;;;-2.27;64.93
77192;BME280;66172;48.526;8.078;2022-12-18T11:06:13;100826.25;;;-2.24;64.77
77192;BME280;66172;48.526;8.078;2022-12-18T11:08:42;100823.44;;;-2.29;64.95
77192;BME280;66172;48.526;8.078;2022-12-18T11:11:19;100819.72;;;-2.28;65.46
77192;BME280;66172;48.526;8.078;2022-12-18T11:13:58;100812.75;;;-2.47;65.22
77192;BME280;66172;48.526;8.078;2022-12-18T11:16:26;100825.09;;;-2.53;66.39
77192;BME280;66172;48.526;8.078;2022-12-18T11:18:53;100812.94;;;-2.67;66.96
77192;BME280;66172;48.526;8.078;2022-12-18T11:21:19;100820.44;;;-2.57;66.39
77192;BME280;66172;48.526;8.078;2022-12-18T11:23:50;100816.63;;;-2.92;68.21
77192;BME280;66172;48.526;8.078;2022-12-18T11:26:19;100816.56;;;-2.61;68.03
77192;BME280;66172;48.526;8.078;2022-12-18T11:28:49;100812.47;;;-2.39;67.29
77192;BME280;66172;48.526;8.078;2022-12-18T11:31:25;100810.63;;;-2.63;67.68
77192;BME280;66172;48.526;8.078;2022-12-18T11:36:36;100808.91;;;-2.51;66.73
77192;BME280;66172;48.526;8.078;2022-12-18T11:39:25;100804.34;;;-2.69;67.49
77192;BME280;66172;48.526;8.078;2022-12-18T11:42:02;100816.34;;;-2.60;67.55
77192;BME280;66172;48.526;8.078;2022-12-18T11:44:47;100800.75;;;-2.56;67.30
77192;BME280;66172;48.526;8.078;2022-12-18T11:47:22;100792.50;;;-2.48;68.04
77192;BME280;66172;48.526;8.078;2022-12-18T11:49:51;100782.31;;;-2.33;68.02
77192;BME280;66172;48.526;8.078;2022-12-18T11:52:24;100778.31;;;-2.24;67.08
77192;BME280;66172;48.526;8.078;2022-12-18T11:54:52;100791.09;;;-2.14;67.19
77192;BME280;66172;48.526;8.078;2022-12-18T12:05:41;100772.53;;;-2.21;67.80
77192;BME280;66172;48.526;8.078;2022-12-18T12:11:05;100777.84;;;-2.21;67.67
77192;BME280;66172;48.526;8.078;2022-12-18T12:13:49;100773.22;;;-2.25;67.78
77192;BME280;66172;48.526;8.078;2022-12-18T12:16:29;100774.16;;;-2.20;67.65
77192;BME280;66172;48.526;8.078;2022-12-18T12:21:57;100779.94;;;-2.23;68.33
77192;BME280;66172;48.526;8.078;2022-12-18T12:24:48;100772.00;;;-2.47;69.44
77192;BME280;66172;48.526;8.078;2022-12-18T12:36:10;100782.19;;;-2.63;70.25
77192;BME280;66172;48.526;8.078;2022-12-18T12:39:05;100798.09;;;-2.81;70.92
77192;BME280;66172;48.526;8.078;2022-12-18T12:41:33;100796.88;;;-2.78;71.36
77192;BME280;66172;48.526;8.078;2022-12-18T12:44:29;100785.50;;;-2.92;71.47
77192;BME280;66172;48.526;8.078;2022-12-18T12:47:00;100780.94;;;-2.85;71.52
77192;BME280;66172;48.526;8.078;2022-12-18T12:49:31;100780.72;;;-2.83;71.16
77192;BME280;66172;48.526;8.078;2022-12-18T12:52:06;100773.56;;;-2.83;70.98
77192;BME280;66172;48.526;8.078;2022-12-18T12:54:34;100773.31;;;-2.99;71.39
77192;BME280;66172;48.526;8.078;2022-12-18T12:57:10;100761.09;;;-3.07;70.89
77192;BME280;66172;48.526;8.078;2022-12-18T13:02:33;100762.94;;;-3.08;72.22
77192;BME280;66172;48.526;8.078;2022-12-18T13:07:57;100754.31;;;-2.85;72.30
77192;BME280;66172;48.526;8.078;2022-12-18T13:13:08;100750.13;;;-2.74;71.00
77192;BME280;66172;48.526;8.078;2022-12-18T13:15:46;100738.78;;;-2.63;71.03
77192;BME280;66172;48.526;8.078;2022-12-18T13:18:20;100745.81;;;-2.93;71.24
77192;BME280;66172;48.526;8.078;2022-12-18T13:21:18;100733.16;;;-3.23;72.25
77192;BME280;66172;48.526;8.078;2022-12-18T13:23:46;100724.72;;;-3.38;73.54
77192;BME280;66172;48.526;8.078;2022-12-18T13:34:22;100708.97;;;-3.39;74.26
77192;BME280;66172;48.526;8.078;2022-12-18T13:36:49;100709.13;;;-3.59;74.02
77192;BME280;66172;48.526;8.078;2022-12-18T13:41:45;100705.44;;;-4.40;78.15
77192;BME280;66172;48.526;8.078;2022-12-18T13:46:52;100706.38;;;-4.22;77.23
77192;BME280;66172;48.526;8.078;2022-12-18T13:49:38;100706.75;;;-4.12;76.85
77192;BME280;66172;48.526;8.078;2022-12-18T13:52:17;100708.28;;;-3.91;76.60
77192;BME280;66172;48.526;8.078;2022-12-18T13:54:53;100706.53;;;-3.72;75.84
77192;BME280;66172;48.526;8.078;2022-12-18T13:59:53;100712.09;;;-3.49;74.75
77192;BME280;66172;48.526;8.078;2022-12-18T14:02:24;100711.94;;;-3.54;75.12
77192;BME280;66172;48.526;8.078;2022-12-18T14:04:51;100711.38;;;-3.63;75.30
77192;BME280;66172;48.526;8.078;2022-12-18T14:07:20;100714.44;;;-3.66;74.99
77192;BME280;66172;48.526;8.078;2022-12-18T14:09:50;100707.78;;;-3.75;76.11
77192;BME280;66172;48.526;8.078;2022-12-18T14:12:37;100712.06;;;-3.74;75.69
77192;BME280;66172;48.526;8.078;2022-12-18T14:18:02;100708.69;;;-3.87;76.68
77192;BME280;66172;48.526;8.078;2022-12-18T14:20:31;100707.09;;;-3.95;77.13
77192;BME280;66172;48.526;8.078;2022-12-18T14:22:58;100712.94;;;-3.86;76.57
77192;BME280;66172;48.526;8.078;2022-12-18T14:25:30;100711.88;;;-3.79;76.76
77192;BME280;66172;48.526;8.078;2022-12-18T14:30:39;100716.38;;;-3.79;75.87
77192;BME280;66172;48.526;8.078;2022-12-18T14:33:14;100710.75;;;-3.96;77.15
77192;BME280;66172;48.526;8.078;2022-12-18T14:35:58;100717.75;;;-4.01;76.68
77192;BME280;66172;48.526;8.078;2022-12-18T14:38:56;100720.00;;;-4.05;76.69
77192;BME280;66172;48.526;8.078;2022-12-18T14:41:22;100719.19;;;-4.06;77.25